createdAt,value
2017-06-23T00:00:18.827Z,28.72
2017-06-23T00:00:59.283Z,28.68
2017-06-23T00:01:39.737Z,28.62
2017-06-23T00:02:20.196Z,28.64
2017-06-23T00:03:00.656Z,28.57
2017-06-23T00:03:41.120Z,28.68
2017-06-23T00:04:21.575Z,28.68
2017-06-23T00:05:02.036Z,28.67
2017-06-23T00:05:42.490Z,28.67
2017-06-23T00:06:22.955Z,28.62
2017-06-23T00:07:03.412Z,28.71
2017-06-23T00:07:43.887Z,28.62
2017-06-23T00:08:24.346Z,28.71
2017-06-23T00:09:04.803Z,28.68
2017-06-23T00:09:45.279Z,28.6
2017-06-23T00:10:25.732Z,28.62
2017-06-23T00:11:06.195Z,28.6
2017-06-23T00:11:46.642Z,28.59
2017-06-23T00:12:27.100Z,28.71
2017-06-23T00:13:07.559Z,28.71
2017-06-23T00:13:48.019Z,28.67
2017-06-23T00:14:28.490Z,28.6
2017-06-23T00:15:08.941Z,28.6
2017-06-23T00:15:49.394Z,28.64
2017-06-23T00:16:29.856Z,28.59
2017-06-23T00:17:10.321Z,28.71
2017-06-23T00:17:50.785Z,28.7
2017-06-23T00:18:31.241Z,28.6
2017-06-23T00:19:11.704Z,28.71
2017-06-23T00:19:52.161Z,28.67
2017-06-23T00:20:32.620Z,28.6
2017-06-23T00:21:13.081Z,28.67
2017-06-23T00:21:53.541Z,28.6
2017-06-23T00:22:34.000Z,28.68
2017-06-23T00:23:14.462Z,28.59
2017-06-23T00:23:54.921Z,28.59
2017-06-23T00:24:35.379Z,28.7
2017-06-23T00:25:15.828Z,28.57
2017-06-23T00:25:56.284Z,28.62
2017-06-23T00:26:36.746Z,28.57
2017-06-23T00:27:17.205Z,28.62
2017-06-23T00:27:57.662Z,28.67
2017-06-23T00:28:38.123Z,28.56
2017-06-23T00:29:18.581Z,28.62
2017-06-23T00:29:59.044Z,28.62
2017-06-23T00:30:39.504Z,28.56
2017-06-23T00:31:19.957Z,28.56
2017-06-23T00:32:00.421Z,28.65
2017-06-23T00:32:40.872Z,28.67
2017-06-23T00:33:21.332Z,28.65
2017-06-23T00:34:01.793Z,28.62
2017-06-23T00:34:42.255Z,28.71
2017-06-23T00:35:22.717Z,28.67
2017-06-23T00:36:03.192Z,28.53
2017-06-23T00:36:43.649Z,28.67
2017-06-23T00:37:24.090Z,28.67
2017-06-23T00:38:04.550Z,28.56
2017-06-23T00:38:45.010Z,28.64
2017-06-23T00:39:25.466Z,28.59
2017-06-23T00:40:05.938Z,28.67
2017-06-23T00:40:46.392Z,28.57
2017-06-23T00:41:26.861Z,28.57
2017-06-23T00:42:07.312Z,28.55
2017-06-23T00:42:47.773Z,28.64
2017-06-23T00:43:28.229Z,28.64
2017-06-23T00:44:08.688Z,28.57
2017-06-23T00:44:49.152Z,28.7
2017-06-23T00:45:29.610Z,28.57
2017-06-23T00:46:10.067Z,28.59
2017-06-23T00:46:50.527Z,28.6
2017-06-23T00:47:30.982Z,28.55
2017-06-23T00:48:11.437Z,28.57
2017-06-23T00:48:51.891Z,28.57
2017-06-23T00:49:32.351Z,28.62
2017-06-23T00:50:12.809Z,28.57
2017-06-23T00:50:53.262Z,28.59
2017-06-23T00:51:33.722Z,28.59
2017-06-23T00:52:14.178Z,28.57
2017-06-23T00:52:54.637Z,28.65
2017-06-23T00:53:35.096Z,28.55
2017-06-23T00:54:15.558Z,28.65
2017-06-23T00:54:56.029Z,28.55
2017-06-23T00:55:36.491Z,28.59
2017-06-23T00:56:16.960Z,28.57
2017-06-23T00:56:57.422Z,28.6
2017-06-23T00:57:37.883Z,28.56
2017-06-23T00:58:18.349Z,28.59
2017-06-23T00:58:58.808Z,28.56
2017-06-23T00:59:39.249Z,28.6
2017-06-23T01:00:19.705Z,28.57
2017-06-23T01:01:00.169Z,28.56
2017-06-23T01:01:40.625Z,28.6
2017-06-23T01:02:21.081Z,28.57
2017-06-23T01:03:01.552Z,28.59
2017-06-23T01:03:41.996Z,28.64
2017-06-23T01:04:22.454Z,28.62
2017-06-23T01:05:02.907Z,28.57
2017-06-23T01:05:43.368Z,28.6
2017-06-23T01:06:23.832Z,28.55
2017-06-23T01:07:04.292Z,28.5
2017-06-23T01:07:44.755Z,28.56
2017-06-23T01:08:25.211Z,28.52
2017-06-23T01:09:05.662Z,28.62
2017-06-23T01:09:46.126Z,28.5
2017-06-23T01:10:26.583Z,28.49
2017-06-23T01:11:07.041Z,28.47
2017-06-23T01:11:47.497Z,28.5
2017-06-23T01:12:27.967Z,28.53
2017-06-23T01:13:08.428Z,28.45
2017-06-23T01:13:48.889Z,28.49
2017-06-23T01:14:29.347Z,28.49
2017-06-23T01:15:09.805Z,28.43
2017-06-23T01:15:50.264Z,28.5
2017-06-23T01:16:30.724Z,28.43
2017-06-23T01:17:11.182Z,28.46
2017-06-23T01:17:51.654Z,28.49
2017-06-23T01:18:32.112Z,28.47
2017-06-23T01:19:12.566Z,28.49
2017-06-23T01:19:53.025Z,28.38
2017-06-23T01:20:33.479Z,28.47
2017-06-23T01:21:13.933Z,28.5
2017-06-23T01:21:54.388Z,28.43
2017-06-23T01:22:34.851Z,28.53
2017-06-23T01:23:15.315Z,28.5
2017-06-23T01:23:55.773Z,28.46
2017-06-23T01:24:36.244Z,28.45
2017-06-23T01:25:16.697Z,28.47
2017-06-23T01:25:57.153Z,28.43
2017-06-23T01:26:37.618Z,28.46
2017-06-23T01:27:18.077Z,28.53
2017-06-23T01:27:58.531Z,28.41
2017-06-23T01:28:38.989Z,28.47
2017-06-23T01:29:19.445Z,28.49
2017-06-23T01:29:59.901Z,28.4
2017-06-23T01:30:40.358Z,28.37
2017-06-23T01:31:20.813Z,28.4
2017-06-23T01:32:01.275Z,28.33
2017-06-23T01:32:41.731Z,28.34
2017-06-23T01:33:22.190Z,28.33
2017-06-23T01:34:02.642Z,28.33
2017-06-23T01:34:43.141Z,28.4
2017-06-23T01:35:23.551Z,28.38
2017-06-23T01:36:04.027Z,28.34
2017-06-23T01:36:44.474Z,28.38
2017-06-23T01:37:24.937Z,28.34
2017-06-23T01:38:05.396Z,28.37
2017-06-23T01:38:45.852Z,28.4
2017-06-23T01:39:26.310Z,28.37
2017-06-23T01:40:06.768Z,28.38
2017-06-23T01:40:47.227Z,28.33
2017-06-23T01:41:27.687Z,28.4
2017-06-23T01:42:08.138Z,28.33
2017-06-23T01:42:48.595Z,28.38
2017-06-23T01:43:29.055Z,28.35
2017-06-23T01:44:09.514Z,28.45
2017-06-23T01:44:49.976Z,28.38
2017-06-23T01:45:30.434Z,28.46
2017-06-23T01:46:10.894Z,28.43
2017-06-23T01:46:51.358Z,28.49
2017-06-23T01:47:31.815Z,28.45
2017-06-23T01:48:12.273Z,28.45
2017-06-23T01:48:52.728Z,28.41
2017-06-23T01:49:33.190Z,28.45
2017-06-23T01:50:13.652Z,28.46
2017-06-23T01:50:54.110Z,28.5
2017-06-23T01:51:34.568Z,28.46
2017-06-23T01:52:15.028Z,28.47
2017-06-23T01:52:55.485Z,28.41
2017-06-23T01:53:35.941Z,28.41
2017-06-23T01:54:16.396Z,28.47
2017-06-23T01:54:56.853Z,28.41
2017-06-23T01:55:37.310Z,28.38
2017-06-23T01:56:17.769Z,28.43
2017-06-23T01:56:58.214Z,28.35
2017-06-23T01:57:38.669Z,28.33
2017-06-23T01:58:19.133Z,28.34
2017-06-23T01:58:59.595Z,28.35
2017-06-23T01:59:40.056Z,28.37
2017-06-23T02:00:20.510Z,28.34
2017-06-23T02:01:00.967Z,28.4
2017-06-23T02:01:41.426Z,28.33
2017-06-23T02:02:21.880Z,28.35
2017-06-23T02:03:02.336Z,28.34
2017-06-23T02:03:42.806Z,28.35
2017-06-23T02:04:23.251Z,28.41
2017-06-23T02:05:03.701Z,28.33
2017-06-23T02:05:44.161Z,28.33
2017-06-23T02:06:24.623Z,28.31
2017-06-23T02:07:05.083Z,28.33
2017-06-23T02:07:45.538Z,28.25
2017-06-23T02:08:25.994Z,28.27
2017-06-23T02:09:06.456Z,28.22
2017-06-23T02:09:46.905Z,28.23
2017-06-23T02:10:27.365Z,28.16
2017-06-23T02:11:07.824Z,28.15
2017-06-23T02:11:48.287Z,28.23
2017-06-23T02:12:28.744Z,28.15
2017-06-23T02:13:09.207Z,28.22
2017-06-23T02:13:49.670Z,28.2
2017-06-23T02:14:30.127Z,28.19
2017-06-23T02:15:10.590Z,28.22
2017-06-23T02:15:51.049Z,28.22
2017-06-23T02:16:31.511Z,28.16
2017-06-23T02:17:11.972Z,28.2
2017-06-23T02:17:52.435Z,28.18
2017-06-23T02:18:32.890Z,28.25
2017-06-23T02:19:13.353Z,28.22
2017-06-23T02:19:53.810Z,28.22
2017-06-23T02:20:34.265Z,28.25
2017-06-23T02:21:14.728Z,28.3
2017-06-23T02:21:55.182Z,28.25
2017-06-23T02:22:35.643Z,28.23
2017-06-23T02:23:16.103Z,28.23
2017-06-23T02:23:56.558Z,28.31
2017-06-23T02:24:37.017Z,28.34
2017-06-23T02:25:17.475Z,28.31
2017-06-23T02:25:57.941Z,28.19
2017-06-23T02:26:38.396Z,28.25
2017-06-23T02:27:18.851Z,28.2
2017-06-23T02:27:59.310Z,28.31
2017-06-23T02:28:39.769Z,28.22
2017-06-23T02:29:20.218Z,28.19
2017-06-23T02:30:00.674Z,28.18
2017-06-23T02:30:41.126Z,28.18
2017-06-23T02:31:21.584Z,28.16
2017-06-23T02:32:02.036Z,28.18
2017-06-23T02:32:42.496Z,28.15
2017-06-23T02:33:22.958Z,28.22
2017-06-23T02:34:03.452Z,28.19
2017-06-23T02:34:43.908Z,28.22
2017-06-23T02:35:24.350Z,28.22
2017-06-23T02:36:04.800Z,28.2
2017-06-23T02:36:45.251Z,28.18
2017-06-23T02:37:25.703Z,28.19
2017-06-23T02:38:06.154Z,28.19
2017-06-23T02:38:46.610Z,28.25
2017-06-23T02:39:27.074Z,28.16
2017-06-23T02:40:07.533Z,28.16
2017-06-23T02:40:48.003Z,28.12
2017-06-23T02:41:28.458Z,28.12
2017-06-23T02:42:08.919Z,28.13
2017-06-23T02:42:49.378Z,28.13
2017-06-23T02:43:29.850Z,28.09
2017-06-23T02:44:10.313Z,28.06
2017-06-23T02:44:50.774Z,28.12
2017-06-23T02:45:31.241Z,28.1
2017-06-23T02:46:11.698Z,28.12
2017-06-23T02:46:52.160Z,28.13
2017-06-23T02:47:32.617Z,28.09
2017-06-23T02:48:13.068Z,28.12
2017-06-23T02:50:05.974Z,28.12
2017-06-23T02:50:46.433Z,28.09
2017-06-23T02:51:26.890Z,28.12
2017-06-23T02:52:07.351Z,28.13
2017-06-23T02:52:47.807Z,28.1
2017-06-23T02:53:28.264Z,28.12
2017-06-23T02:54:08.721Z,28.1
2017-06-23T02:54:49.181Z,28.13
2017-06-23T02:55:29.638Z,28.12
2017-06-23T02:56:10.091Z,28.13
2017-06-23T02:56:50.553Z,28.18
2017-06-23T02:57:31.012Z,28.1
2017-06-23T02:58:11.468Z,28.1
2017-06-23T02:58:51.912Z,28.16
2017-06-23T02:59:32.370Z,28.12
2017-06-23T03:00:12.832Z,28.13
2017-06-23T03:00:53.279Z,28.16
2017-06-23T03:01:33.738Z,28.18
2017-06-23T03:02:14.193Z,28.1
2017-06-23T03:02:54.654Z,28.12
2017-06-23T03:03:35.113Z,28.16
2017-06-23T03:04:15.569Z,28.16
2017-06-23T03:04:56.029Z,28.16
2017-06-23T03:05:36.493Z,28.16
2017-06-23T03:06:16.958Z,28.19
2017-06-23T03:06:57.414Z,28.22
2017-06-23T03:07:37.874Z,28.16
2017-06-23T03:08:18.340Z,28.16
2017-06-23T03:08:58.787Z,28.1
2017-06-23T03:09:39.248Z,28.18
2017-06-23T03:10:19.706Z,28.12
2017-06-23T03:11:00.164Z,28.08
2017-06-23T03:11:40.617Z,28.12
2017-06-23T03:12:21.085Z,28.13
2017-06-23T03:13:01.540Z,28.18
2017-06-23T03:13:41.999Z,28.06
2017-06-23T03:14:22.463Z,28.15
2017-06-23T03:15:02.924Z,28.06
2017-06-23T03:15:43.372Z,28.13
2017-06-23T03:16:23.827Z,28.15
2017-06-23T03:17:04.289Z,28.1
2017-06-23T03:17:44.752Z,28.15
2017-06-23T03:18:25.209Z,28.09
2017-06-23T03:19:05.665Z,28.1
2017-06-23T03:19:46.123Z,28.1
2017-06-23T03:20:26.583Z,28.13
2017-06-23T03:21:07.041Z,28.09
2017-06-23T03:21:47.492Z,28.18
2017-06-23T03:22:27.941Z,28.13
2017-06-23T03:23:08.389Z,28.13
2017-06-23T03:23:48.852Z,28.08
2017-06-23T03:24:29.310Z,28.12
2017-06-23T03:25:09.767Z,28.16
2017-06-23T03:25:50.228Z,28.12
2017-06-23T03:26:30.684Z,28.1
2017-06-23T03:27:11.141Z,28.12
2017-06-23T03:27:51.605Z,28.12
2017-06-23T03:28:32.066Z,28.12
2017-06-23T03:29:12.528Z,28.1
2017-06-23T03:29:52.981Z,28.09
2017-06-23T03:30:33.435Z,28.1
2017-06-23T03:31:13.921Z,28.12
2017-06-23T03:31:54.378Z,28.13
2017-06-23T03:32:34.843Z,28.09
2017-06-23T03:33:15.300Z,28.12
2017-06-23T03:33:55.755Z,28.13
2017-06-23T03:34:36.216Z,28.18
2017-06-23T03:35:16.672Z,28.09
2017-06-23T03:35:57.131Z,28.18
2017-06-23T03:36:37.593Z,28.12
2017-06-23T03:37:18.051Z,28.12
2017-06-23T03:37:58.512Z,28.12
2017-06-23T03:38:38.967Z,28.12
2017-06-23T03:39:19.429Z,28.13
2017-06-23T03:39:59.920Z,28.13
2017-06-23T03:40:40.335Z,28.09
2017-06-23T03:41:20.789Z,28.13
2017-06-23T03:42:01.246Z,28.09
2017-06-23T03:42:41.702Z,28.12
2017-06-23T03:43:22.160Z,28.15
2017-06-23T03:44:02.617Z,28.12
2017-06-23T03:44:43.076Z,28.16
2017-06-23T03:45:23.544Z,28.13
2017-06-23T03:46:04.000Z,28.15
2017-06-23T03:46:44.460Z,28.03
2017-06-23T03:47:24.917Z,28.12
2017-06-23T03:48:05.376Z,28.12
2017-06-23T03:48:45.841Z,28.09
2017-06-23T03:49:26.302Z,28.12
2017-06-23T03:50:06.767Z,28.08
2017-06-23T03:50:47.223Z,28.13
2017-06-23T03:51:27.686Z,28.12
2017-06-23T03:52:08.143Z,28.15
2017-06-23T03:52:48.603Z,28.06
2017-06-23T03:53:29.076Z,28.12
2017-06-23T03:54:09.541Z,28.09
2017-06-23T03:54:50.021Z,28.1
2017-06-23T03:55:30.483Z,28.13
2017-06-23T03:56:10.939Z,28.04
2017-06-23T03:56:51.393Z,28
2017-06-23T03:57:31.851Z,28.04
2017-06-23T03:58:12.307Z,28.1
2017-06-23T03:58:52.769Z,28.01
2017-06-23T03:59:33.232Z,28.06
2017-06-23T04:00:13.696Z,28.01
2017-06-23T04:00:54.161Z,28.12
2017-06-23T04:01:34.617Z,28.15
2017-06-23T04:02:15.082Z,28.19
2017-06-23T04:02:55.538Z,28.08
2017-06-23T04:03:35.989Z,28.15
2017-06-23T04:04:16.448Z,28.13
2017-06-23T04:04:56.905Z,28.18
2017-06-23T04:05:37.364Z,28.13
2017-06-23T04:06:17.808Z,28.12
2017-06-23T04:06:58.268Z,28.13
2017-06-23T04:07:38.720Z,28.06
2017-06-23T04:08:19.187Z,28.12
2017-06-23T04:08:59.667Z,28.16
2017-06-23T04:09:40.126Z,28.13
2017-06-23T04:10:20.595Z,28.16
2017-06-23T04:11:01.064Z,28.15
2017-06-23T04:11:41.526Z,28.15
2017-06-23T04:12:22.007Z,28.2
2017-06-23T04:13:02.445Z,28.16
2017-06-23T04:13:42.906Z,28.2
2017-06-23T04:14:23.368Z,28.28
2017-06-23T04:15:03.840Z,28.2
2017-06-23T04:15:44.298Z,28.22
2017-06-23T04:16:24.756Z,28.19
2017-06-23T04:17:05.215Z,28.23
2017-06-23T04:17:45.673Z,28.2
2017-06-23T04:18:26.134Z,28.23
2017-06-23T04:19:06.593Z,28.23
2017-06-23T04:19:47.047Z,28.27
2017-06-23T04:20:27.509Z,28.22
2017-06-23T04:21:07.948Z,28.23
2017-06-23T04:21:48.405Z,28.3
2017-06-23T04:22:28.868Z,28.27
2017-06-23T04:23:09.327Z,28.28
2017-06-23T04:23:49.787Z,28.23
2017-06-23T04:24:30.237Z,28.3
2017-06-23T04:25:10.696Z,28.25
2017-06-23T04:25:51.152Z,28.33
2017-06-23T04:26:31.616Z,28.27
2017-06-23T04:27:12.072Z,28.27
2017-06-23T04:27:52.527Z,28.3
2017-06-23T04:28:32.993Z,28.25
2017-06-23T04:29:13.449Z,28.3
2017-06-23T04:29:53.913Z,28.33
2017-06-23T04:30:34.369Z,28.33
2017-06-23T04:31:14.832Z,28.27
2017-06-23T04:31:55.286Z,28.3
2017-06-23T04:32:35.752Z,28.34
2017-06-23T04:33:16.207Z,28.31
2017-06-23T04:33:56.661Z,28.31
2017-06-23T04:34:37.126Z,28.37
2017-06-23T04:35:17.582Z,28.33
2017-06-23T04:35:58.034Z,28.25
2017-06-23T04:36:38.499Z,28.28
2017-06-23T04:37:18.953Z,28.4
2017-06-23T04:37:59.415Z,28.31
2017-06-23T04:38:39.872Z,28.31
2017-06-23T04:39:20.334Z,28.28
2017-06-23T04:40:00.791Z,28.31
2017-06-23T04:40:41.252Z,28.35
2017-06-23T04:41:21.715Z,28.35
2017-06-23T04:42:02.174Z,28.38
2017-06-23T04:42:42.635Z,28.35
2017-06-23T04:43:23.093Z,28.37
2017-06-23T04:44:03.550Z,28.34
2017-06-23T04:44:44.010Z,28.34
2017-06-23T04:45:24.460Z,28.38
2017-06-23T04:46:04.916Z,28.35
2017-06-23T04:46:45.395Z,28.4
2017-06-23T04:47:25.843Z,28.38
2017-06-23T04:48:06.307Z,28.41
2017-06-23T04:48:46.778Z,28.35
2017-06-23T04:49:27.223Z,28.34
2017-06-23T04:50:07.689Z,28.34
2017-06-23T04:50:48.139Z,28.46
2017-06-23T04:51:28.588Z,28.35
2017-06-23T04:52:09.051Z,28.38
2017-06-23T04:52:49.521Z,28.34
2017-06-23T04:53:29.979Z,28.34
2017-06-23T04:54:10.450Z,28.38
2017-06-23T04:56:08.134Z,28.33
2017-06-23T04:56:48.592Z,28.34
2017-06-23T04:57:29.052Z,28.34
2017-06-23T04:58:09.513Z,28.31
2017-06-23T04:58:49.972Z,28.43
2017-06-23T04:59:30.429Z,28.35
2017-06-23T05:00:10.887Z,28.37
2017-06-23T05:00:51.357Z,28.28
2017-06-23T05:01:31.857Z,28.37
2017-06-23T05:02:12.312Z,28.33
2017-06-23T05:02:52.768Z,28.37
2017-06-23T05:03:33.220Z,28.35
2017-06-23T05:04:13.673Z,28.38
2017-06-23T05:04:54.132Z,28.35
2017-06-23T05:07:08.425Z,28.41
2017-06-23T05:07:48.879Z,28.33
2017-06-23T05:08:29.339Z,28.34
2017-06-23T05:09:09.793Z,28.35
2017-06-23T05:09:50.250Z,28.37
2017-06-23T05:10:30.713Z,28.33
2017-06-23T05:11:11.172Z,28.38
2017-06-23T05:11:51.630Z,28.35
2017-06-23T05:12:32.091Z,28.37
2017-06-23T05:13:12.546Z,28.35
2017-06-23T05:13:53.009Z,28.34
2017-06-23T05:14:33.472Z,28.37
2017-06-23T05:15:13.914Z,28.33
2017-06-23T05:15:54.363Z,28.38
2017-06-23T05:16:34.818Z,28.33
2017-06-23T05:17:15.286Z,28.31
2017-06-23T05:17:55.742Z,28.34
2017-06-23T05:18:36.203Z,28.41
2017-06-23T05:19:16.663Z,28.31
2017-06-23T05:19:57.112Z,28.5
2017-06-23T05:20:37.575Z,28.41
2017-06-23T05:21:18.025Z,28.34
2017-06-23T05:21:58.502Z,28.46
2017-06-23T05:22:38.954Z,28.35
2017-06-23T05:23:19.414Z,28.5
2017-06-23T05:23:59.871Z,28.43
2017-06-23T05:24:40.331Z,28.49
2017-06-23T05:25:20.780Z,28.43
2017-06-23T05:26:01.236Z,28.47
2017-06-23T05:26:41.697Z,28.35
2017-06-23T05:27:22.179Z,28.47
2017-06-23T05:28:02.639Z,28.46
2017-06-23T05:28:43.097Z,28.4
2017-06-23T05:29:23.548Z,28.49
2017-06-23T05:30:04.007Z,28.49
2017-06-23T05:30:44.466Z,28.47
2017-06-23T05:31:24.926Z,28.4
2017-06-23T05:32:05.386Z,28.46
2017-06-23T05:32:45.858Z,28.47
2017-06-23T05:33:26.319Z,28.46
2017-06-23T05:34:06.827Z,28.49
2017-06-23T05:34:47.282Z,28.4
2017-06-23T05:35:27.731Z,28.52
2017-06-23T05:36:08.187Z,28.49
2017-06-23T05:36:48.641Z,28.46
2017-06-23T05:37:29.101Z,28.46
2017-06-23T05:38:09.559Z,28.5
2017-06-23T05:38:50.014Z,28.45
2017-06-23T05:39:30.469Z,28.43
2017-06-23T05:40:13.027Z,28.52
2017-06-23T05:40:53.483Z,28.53
2017-06-23T05:41:33.937Z,28.52
2017-06-23T05:42:14.397Z,28.52
2017-06-23T05:42:54.857Z,28.5
2017-06-23T05:43:35.315Z,28.45
2017-06-23T05:44:15.770Z,28.52
2017-06-23T05:44:56.234Z,28.53
2017-06-23T05:45:36.697Z,28.45
2017-06-23T05:46:17.159Z,28.49
2017-06-23T05:46:57.614Z,28.5
2017-06-23T05:47:38.061Z,28.49
2017-06-23T05:48:18.524Z,28.56
2017-06-23T05:48:58.987Z,28.46
2017-06-23T05:49:39.445Z,28.55
2017-06-23T05:50:19.907Z,28.55
2017-06-23T05:51:00.366Z,28.43
2017-06-23T05:51:40.823Z,28.46
2017-06-23T05:52:21.276Z,28.52
2017-06-23T05:53:01.733Z,28.49
2017-06-23T05:53:42.194Z,28.49
2017-06-23T05:54:22.659Z,28.57
2017-06-23T05:55:03.119Z,28.5
2017-06-23T05:55:43.579Z,28.56
2017-06-23T05:56:24.038Z,28.5
2017-06-23T05:57:04.496Z,28.5
2017-06-23T05:57:44.944Z,28.47
2017-06-23T05:58:25.405Z,28.53
2017-06-23T05:59:05.873Z,28.56
2017-06-23T05:59:46.367Z,28.45
2017-06-23T06:00:26.829Z,28.64
2017-06-23T06:01:07.286Z,28.57
2017-06-23T06:01:47.750Z,28.5
2017-06-23T06:02:28.207Z,28.47
2017-06-23T06:03:08.669Z,28.65
2017-06-23T06:03:49.123Z,28.64
2017-06-23T06:04:29.575Z,28.56
2017-06-23T06:05:10.036Z,28.52
2017-06-23T06:05:50.491Z,28.5
2017-06-23T06:06:30.946Z,28.5
2017-06-23T06:07:11.416Z,28.47
2017-06-23T06:07:51.882Z,28.57
2017-06-23T06:08:32.341Z,28.55
2017-06-23T06:09:12.797Z,28.49
2017-06-23T06:09:53.261Z,28.5
2017-06-23T06:10:33.720Z,28.6
2017-06-23T06:11:14.176Z,28.52
2017-06-23T06:11:54.647Z,28.52
2017-06-23T06:12:35.092Z,28.59
2017-06-23T06:13:15.554Z,28.57
2017-06-23T06:13:56.017Z,28.65
2017-06-23T06:15:53.708Z,28.6
2017-06-23T06:16:34.162Z,28.56
2017-06-23T06:17:14.606Z,28.64
2017-06-23T06:17:55.055Z,28.6
2017-06-23T06:18:35.514Z,28.56
2017-06-23T06:19:15.977Z,28.52
2017-06-23T06:19:56.425Z,28.57
2017-06-23T06:20:36.879Z,28.57
2017-06-23T06:21:17.338Z,28.55
2017-06-23T06:21:57.800Z,28.56
2017-06-23T06:22:38.253Z,28.56
2017-06-23T06:23:18.710Z,28.57
2017-06-23T06:23:59.171Z,28.57
2017-06-23T06:24:39.630Z,28.56
2017-06-23T06:25:20.086Z,28.59
2017-06-23T06:26:00.545Z,28.59
2017-06-23T06:26:41.002Z,28.57
2017-06-23T06:27:21.459Z,28.55
2017-06-23T06:28:01.916Z,28.52
2017-06-23T06:28:42.375Z,28.56
2017-06-23T06:29:22.835Z,28.57
2017-06-23T06:30:03.319Z,28.65
2017-06-23T06:30:43.776Z,28.59
2017-06-23T06:31:24.237Z,28.57
2017-06-23T06:32:04.697Z,28.64
2017-06-23T06:32:45.163Z,28.56
2017-06-23T06:33:25.617Z,28.64
2017-06-23T06:34:06.074Z,28.68
2017-06-23T06:34:46.537Z,28.71
2017-06-23T06:35:26.999Z,28.59
2017-06-23T06:36:07.453Z,28.67
2017-06-23T06:36:47.912Z,28.57
2017-06-23T06:37:28.367Z,28.59
2017-06-23T06:38:08.815Z,28.6
2017-06-23T06:38:49.272Z,28.65
2017-06-23T06:39:29.730Z,28.57
2017-06-23T06:40:10.186Z,28.57
2017-06-23T06:40:50.649Z,28.62
2017-06-23T06:41:31.107Z,28.67
2017-06-23T06:42:11.563Z,28.57
2017-06-23T06:42:52.023Z,28.72
2017-06-23T06:43:32.483Z,28.57
2017-06-23T06:44:12.939Z,28.6
2017-06-23T06:44:53.390Z,28.59
2017-06-23T06:45:33.858Z,28.6
2017-06-23T06:46:14.320Z,28.67
2017-06-23T06:46:54.766Z,28.57
2017-06-23T06:47:35.219Z,28.6
2017-06-23T06:48:15.677Z,28.64
2017-06-23T06:48:56.137Z,28.57
2017-06-23T06:49:36.592Z,28.64
2017-06-23T06:50:17.068Z,28.64
2017-06-23T06:50:57.525Z,28.67
2017-06-23T06:51:37.991Z,28.6
2017-06-23T06:52:18.447Z,28.72
2017-06-23T06:52:58.909Z,28.68
2017-06-23T06:53:39.344Z,28.74
2017-06-23T06:54:19.803Z,28.62
2017-06-23T06:55:00.260Z,28.7
2017-06-23T06:55:40.719Z,28.74
2017-06-23T06:56:21.184Z,28.65
2017-06-23T06:57:01.643Z,28.68
2017-06-23T06:57:42.101Z,28.71
2017-06-23T06:58:22.560Z,28.7
2017-06-23T06:59:03.014Z,28.68
2017-06-23T06:59:43.495Z,28.7
2017-06-23T07:00:23.951Z,28.6
2017-06-23T07:01:04.411Z,28.7
2017-06-23T07:01:44.865Z,28.64
2017-06-23T07:02:25.325Z,28.71
2017-06-23T07:03:05.787Z,28.62
2017-06-23T07:03:46.253Z,28.59
2017-06-23T07:04:26.719Z,28.6
2017-06-23T07:05:07.170Z,28.6
2017-06-23T07:05:47.626Z,28.7
2017-06-23T07:06:28.082Z,28.6
2017-06-23T07:07:08.533Z,28.64
2017-06-23T07:07:48.990Z,28.64
2017-06-23T07:08:29.448Z,28.67
2017-06-23T07:09:09.909Z,28.62
2017-06-23T07:09:50.377Z,28.7
2017-06-23T07:10:30.830Z,28.7
2017-06-23T07:11:11.289Z,28.68
2017-06-23T07:11:51.767Z,28.67
2017-06-23T07:12:32.203Z,28.71
2017-06-23T07:13:12.656Z,28.7
2017-06-23T07:13:53.118Z,28.75
2017-06-23T07:14:33.578Z,28.74
2017-06-23T07:15:14.038Z,28.71
2017-06-23T07:15:54.493Z,28.6
2017-06-23T07:16:34.952Z,28.72
2017-06-23T07:17:15.404Z,28.67
2017-06-23T07:17:55.870Z,28.77
2017-06-23T07:18:36.324Z,28.68
2017-06-23T07:19:16.783Z,28.72
2017-06-23T07:19:57.238Z,28.72
2017-06-23T07:20:37.699Z,28.82
2017-06-23T07:21:18.156Z,28.8
2017-06-23T07:21:58.625Z,28.75
2017-06-23T07:22:39.085Z,28.77
2017-06-23T07:23:19.543Z,28.77
2017-06-23T07:24:00.006Z,28.84
2017-06-23T07:24:40.460Z,28.84
2017-06-23T07:25:20.926Z,28.78
2017-06-23T07:26:01.394Z,28.82
2017-06-23T07:26:41.832Z,28.83
2017-06-23T07:27:22.290Z,28.9
2017-06-23T07:28:02.748Z,28.84
2017-06-23T07:28:43.211Z,28.83
2017-06-23T07:29:23.673Z,28.8
2017-06-23T07:30:04.125Z,28.83
2017-06-23T07:30:44.588Z,28.87
2017-06-23T07:31:25.049Z,28.83
2017-06-23T07:32:05.508Z,28.84
2017-06-23T07:32:45.969Z,28.89
2017-06-23T07:33:26.431Z,28.82
2017-06-23T07:34:06.889Z,28.87
2017-06-23T07:34:47.352Z,28.89
2017-06-23T07:35:27.811Z,28.9
2017-06-23T07:36:08.267Z,28.89
2017-06-23T07:36:48.726Z,28.96
2017-06-23T07:37:29.195Z,28.94
2017-06-23T07:38:09.658Z,28.93
2017-06-23T07:38:50.120Z,28.9
2017-06-23T07:39:30.579Z,28.87
2017-06-23T07:40:11.043Z,28.87
2017-06-23T07:40:51.502Z,28.87
2017-06-23T07:41:31.963Z,28.92
2017-06-23T07:42:12.422Z,28.9
2017-06-23T07:42:52.878Z,28.96
2017-06-23T07:43:33.330Z,28.93
2017-06-23T07:44:13.791Z,28.96
2017-06-23T07:44:54.256Z,29.06
2017-06-23T07:45:34.712Z,28.97
2017-06-23T07:46:15.172Z,29.02
2017-06-23T07:46:55.634Z,29.07
2017-06-23T07:47:36.091Z,29.07
2017-06-23T07:48:16.562Z,29
2017-06-23T07:48:57.020Z,29.06
2017-06-23T07:49:37.480Z,29
2017-06-23T07:50:17.945Z,29.09
2017-06-23T07:50:58.405Z,29.05
2017-06-23T07:51:38.861Z,29.12
2017-06-23T07:52:19.317Z,29.09
2017-06-23T07:52:59.776Z,29.1
2017-06-23T07:53:40.232Z,29.12
2017-06-23T07:54:20.691Z,29.15
2017-06-23T07:55:01.147Z,29.1
2017-06-23T07:55:41.607Z,29.07
2017-06-23T07:56:22.068Z,29.06
2017-06-23T07:57:02.530Z,29.05
2017-06-23T07:57:42.987Z,29.07
2017-06-23T07:58:23.448Z,29.09
2017-06-23T07:59:03.905Z,29.13
2017-06-23T07:59:44.369Z,29.1
2017-06-23T08:00:24.827Z,29.1
2017-06-23T08:01:05.287Z,29.03
2017-06-23T08:01:45.746Z,29.13
2017-06-23T08:02:26.220Z,29.1
2017-06-23T08:03:06.696Z,29.1
2017-06-23T08:03:47.137Z,29.02
2017-06-23T08:04:27.597Z,29.09
2017-06-23T08:05:08.056Z,29.1
2017-06-23T08:05:48.517Z,29.07
2017-06-23T08:06:28.971Z,29.09
2017-06-23T08:07:09.431Z,29.09
2017-06-23T08:07:49.886Z,29.03
2017-06-23T08:08:30.342Z,29.07
2017-06-23T08:09:10.799Z,29.09
2017-06-23T08:09:51.260Z,29.09
2017-06-23T08:10:31.718Z,29.12
2017-06-23T08:11:12.175Z,29.12
2017-06-23T08:11:52.632Z,29.13
2017-06-23T08:12:33.094Z,29.16
2017-06-23T08:13:13.553Z,29.16
2017-06-23T08:13:54.009Z,29.16
2017-06-23T08:14:34.464Z,29.15
2017-06-23T08:15:14.925Z,29.15
2017-06-23T08:15:55.383Z,29.13
2017-06-23T08:16:35.850Z,29.15
2017-06-23T08:17:16.307Z,29.15
2017-06-23T08:17:56.762Z,29.18
2017-06-23T08:18:37.222Z,29.1
2017-06-23T08:19:17.678Z,29.12
2017-06-23T08:19:58.136Z,29.16
2017-06-23T08:20:38.595Z,29.09
2017-06-23T08:21:19.059Z,29.2
2017-06-23T08:21:59.509Z,29.16
2017-06-23T08:22:39.974Z,29.13
2017-06-23T08:23:20.427Z,29.16
2017-06-23T08:24:00.901Z,29.1
2017-06-23T08:24:41.337Z,29.12
2017-06-23T08:25:21.802Z,29.24
2017-06-23T08:26:02.258Z,29.13
2017-06-23T08:26:42.718Z,29.15
2017-06-23T08:27:23.176Z,29.2
2017-06-23T08:28:03.633Z,29.13
2017-06-23T08:28:44.091Z,29.16
2017-06-23T08:29:24.568Z,29.22
2017-06-23T08:30:05.008Z,29.18
2017-06-23T08:30:45.469Z,29.22
2017-06-23T08:31:25.928Z,29.22
2017-06-23T08:32:06.388Z,29.25
2017-06-23T08:32:46.843Z,29.3
2017-06-23T08:33:27.307Z,29.25
2017-06-23T08:34:07.769Z,29.22
2017-06-23T08:34:48.227Z,29.24
2017-06-23T08:35:28.685Z,29.28
2017-06-23T08:36:09.152Z,29.32
2017-06-23T08:36:49.616Z,29.35
2017-06-23T08:37:30.077Z,29.35
2017-06-23T08:38:10.532Z,29.4
2017-06-23T08:38:50.995Z,29.46
2017-06-23T08:39:31.458Z,29.44
2017-06-23T08:40:11.912Z,29.4
2017-06-23T08:40:52.383Z,29.53
2017-06-23T08:41:32.854Z,29.43
2017-06-23T08:42:13.321Z,29.46
2017-06-23T08:42:53.758Z,29.47
2017-06-23T08:43:34.226Z,29.4
2017-06-23T08:44:14.670Z,29.42
2017-06-23T08:44:55.110Z,29.4
2017-06-23T08:45:35.563Z,29.39
2017-06-23T08:46:16.025Z,29.43
2017-06-23T08:46:56.486Z,29.42
2017-06-23T08:47:36.960Z,29.52
2017-06-23T08:48:17.429Z,29.44
2017-06-23T08:48:57.874Z,29.49